createdAt,value
2022-11-21T00:01:20.389Z,9.60
2022-11-21T00:03:48.667Z,9.90
2022-11-21T00:06:16.901Z,8.57
2022-11-21T00:08:46.765Z,8.60
2022-11-21T00:11:15.096Z,7.63
2022-11-21T00:13:43.725Z,7.73
2022-11-21T00:16:13.226Z,8.67
2022-11-21T00:18:41.776Z,8.77
2022-11-21T00:21:13.375Z,8.33
2022-11-21T00:23:41.292Z,8.30
2022-11-21T00:26:11.936Z,9.27
2022-11-21T00:28:40.067Z,10.57
2022-11-21T00:31:08.290Z,12.63
2022-11-21T00:33:37.053Z,13.50
2022-11-21T00:36:09.163Z,14.20
2022-11-21T00:38:37.619Z,15.17
2022-11-21T00:41:05.793Z,16.23
2022-11-21T00:43:35.711Z,17.40
2022-11-21T00:46:04.462Z,16.70
2022-11-21T00:48:33.523Z,18.43
2022-11-21T00:51:02.030Z,21.33
2022-11-21T00:53:30.946Z,18.90
2022-11-21T00:55:59.127Z,20.07
2022-11-21T00:58:27.383Z,20.80
2022-11-21T01:01:03.889Z,21.23
2022-11-21T01:03:33.721Z,20.73
2022-11-21T01:06:03.195Z,19.33
2022-11-21T01:08:31.119Z,20.07
2022-11-21T01:11:03.683Z,21.50
2022-11-21T01:13:31.590Z,18.73
2022-11-21T01:16:05.897Z,21.20
2022-11-21T01:18:34.307Z,18.47
2022-11-21T01:21:02.479Z,14.60
2022-11-21T01:23:30.711Z,14.63
2022-11-21T01:26:02.552Z,15.27
2022-11-21T01:28:30.374Z,13.13
2022-11-21T01:31:06.254Z,12.63
2022-11-21T01:33:34.781Z,13.77
2022-11-21T01:36:11.243Z,13.77
2022-11-21T01:38:39.354Z,14.83
2022-11-21T01:41:07.280Z,11.57
2022-11-21T01:43:35.269Z,10.43
2022-11-21T01:46:11.814Z,11.87
2022-11-21T01:48:45.731Z,11.43
2022-11-21T01:51:21.485Z,10.63
2022-11-21T01:53:55.062Z,10.53
2022-11-21T01:56:23.843Z,11.30
2022-11-21T01:58:56.930Z,12.30
2022-11-21T02:01:26.189Z,10.27
2022-11-21T02:03:57.950Z,9.53
2022-11-21T02:06:27.060Z,13.17
2022-11-21T02:08:55.080Z,12.37
2022-11-21T02:11:31.682Z,10.63
2022-11-21T02:14:01.083Z,11.10
2022-11-21T02:16:30.843Z,12.03
2022-11-21T02:18:58.817Z,10.17
2022-11-21T02:21:37.541Z,10.77
2022-11-21T02:24:13.632Z,12.67
2022-11-21T02:26:43.496Z,12.70
2022-11-21T02:29:11.401Z,12.23
2022-11-21T02:31:39.423Z,11.70
2022-11-21T02:34:07.675Z,11.37
2022-11-21T02:36:42.418Z,10.50
2022-11-21T02:39:14.898Z,10.60
2022-11-21T02:41:52.865Z,11.63
2022-11-21T02:44:25.795Z,10.53
2022-11-21T02:46:54.371Z,11.57
2022-11-21T02:49:31.475Z,9.73
2022-11-21T02:51:59.376Z,10.33
2022-11-21T02:54:27.493Z,10.17
2022-11-21T02:56:57.581Z,12.47
2022-11-21T02:59:25.468Z,11.40
2022-11-21T03:01:53.369Z,16.33
2022-11-21T03:04:21.165Z,10.97
2022-11-21T03:06:49.092Z,12.63
2022-11-21T03:09:17.040Z,13.90
2022-11-21T03:11:44.853Z,11.40
2022-11-21T03:14:14.217Z,11.60
2022-11-21T03:16:42.018Z,10.73
2022-11-21T03:19:09.825Z,11.40
2022-11-21T03:21:37.984Z,10.67
2022-11-21T03:24:06.688Z,11.50
2022-11-21T03:26:34.504Z,12.10
2022-11-21T03:29:02.689Z,12.80
2022-11-21T03:31:31.925Z,10.93
2022-11-21T03:33:59.744Z,10.80
2022-11-21T03:36:27.853Z,13.83
2022-11-21T03:38:56.542Z,12.53
2022-11-21T03:41:33.467Z,10.97
2022-11-21T03:44:04.216Z,10.53
2022-11-21T03:46:35.332Z,11.23
2022-11-21T03:49:03.881Z,11.43
2022-11-21T03:51:32.007Z,11.30
2022-11-21T03:54:00.391Z,11.47
2022-11-21T03:56:29.048Z,12.37
2022-11-21T03:58:56.890Z,11.10
2022-11-21T04:01:25.861Z,10.03
2022-11-21T04:03:55.428Z,11.27
2022-11-21T04:06:23.845Z,9.87
2022-11-21T04:08:52.020Z,10.77
2022-11-21T04:11:23.492Z,11.10
2022-11-21T04:13:51.559Z,10.03
2022-11-21T04:16:20.047Z,9.67
2022-11-21T04:18:48.392Z,8.77
2022-11-21T04:21:17.607Z,9.83
2022-11-21T04:23:45.581Z,10.10
2022-11-21T04:26:13.488Z,8.60
2022-11-21T04:28:41.285Z,10.63
2022-11-21T04:31:11.416Z,10.83
2022-11-21T04:33:39.982Z,10.10
2022-11-21T04:36:08.390Z,9.70
2022-11-21T04:38:37.803Z,9.17
2022-11-21T04:41:05.908Z,7.40
2022-11-21T04:43:33.943Z,9.93
2022-11-21T04:46:02.104Z,9.23
2022-11-21T04:48:30.110Z,12.87
2022-11-21T04:50:57.945Z,10.43
2022-11-21T04:53:25.884Z,11.20
2022-11-21T04:55:55.199Z,11.87
2022-11-21T04:58:23.034Z,12.40
2022-11-21T05:00:50.976Z,10.40
2022-11-21T05:03:18.977Z,10.83
2022-11-21T05:05:47.304Z,9.73
2022-11-21T05:08:15.208Z,10.23
2022-11-21T05:11:02.394Z,12.93
2022-11-21T05:13:31.752Z,9.73
2022-11-21T05:15:59.779Z,10.03
2022-11-21T05:18:27.713Z,10.20
2022-11-21T05:20:55.674Z,11.67
2022-11-21T05:23:23.569Z,10.20
2022-11-21T05:25:51.398Z,9.33
2022-11-21T05:28:19.268Z,17.37
2022-11-21T05:30:48.568Z,12.10
2022-11-21T05:33:16.384Z,12.23
2022-11-21T05:35:44.358Z,13.13
2022-11-21T05:38:12.623Z,15.50
2022-11-21T05:40:40.582Z,11.67
2022-11-21T05:43:26.025Z,10.93
2022-11-21T05:45:55.362Z,11.47
2022-11-21T05:48:23.177Z,14.70
2022-11-21T05:50:51.248Z,11.33
2022-11-21T05:53:19.234Z,13.60
2022-11-21T05:55:47.397Z,11.60
2022-11-21T05:58:15.851Z,13.27
2022-11-21T06:00:43.816Z,11.93
2022-11-21T06:03:28.149Z,17.13
2022-11-21T06:06:03.932Z,13.33
2022-11-21T06:08:33.987Z,14.00
2022-11-21T06:11:01.956Z,14.77
2022-11-21T06:13:30.283Z,14.77
2022-11-21T06:16:01.700Z,13.77
2022-11-21T06:18:33.470Z,12.90
2022-11-21T06:21:05.795Z,11.33
2022-11-21T06:23:33.820Z,15.77
2022-11-21T06:26:03.928Z,14.37
2022-11-21T06:28:33.870Z,12.77
2022-11-21T06:31:04.342Z,12.13
2022-11-21T06:33:33.805Z,14.27
2022-11-21T06:36:03.489Z,16.40
2022-11-21T06:38:31.283Z,16.40
2022-11-21T06:40:59.561Z,12.77
2022-11-21T06:43:28.600Z,10.97
2022-11-21T06:45:56.983Z,15.53
2022-11-21T06:48:24.832Z,13.80
2022-11-21T06:50:54.179Z,10.30
2022-11-21T06:53:21.990Z,10.43
2022-11-21T06:55:49.819Z,11.20
2022-11-21T06:58:17.844Z,9.57
2022-11-21T07:00:46.132Z,12.07
2022-11-21T07:03:13.924Z,15.43
2022-11-21T07:05:41.921Z,10.53
2022-11-21T07:08:13.449Z,14.17
2022-11-21T07:10:57.306Z,16.27
2022-11-21T07:13:30.138Z,14.30
2022-11-21T07:16:03.157Z,12.63
2022-11-21T07:18:31.336Z,15.80
2022-11-21T07:21:00.216Z,9.93
2022-11-21T07:23:30.238Z,13.90
2022-11-21T07:26:01.026Z,12.90
2022-11-21T07:28:29.555Z,10.63
2022-11-21T07:30:57.611Z,11.60
2022-11-21T07:33:25.665Z,8.90
2022-11-21T07:35:53.448Z,14.33
2022-11-21T07:38:21.288Z,12.97
2022-11-21T07:40:50.618Z,12.03
2022-11-21T07:43:19.173Z,10.30
2022-11-21T07:45:47.031Z,9.57
2022-11-21T07:48:15.219Z,11.67
2022-11-21T07:50:43.007Z,8.20
2022-11-21T07:53:13.369Z,7.57
2022-11-21T07:55:41.345Z,7.83
2022-11-21T07:58:12.582Z,5.33
2022-11-21T08:00:43.556Z,8.47
2022-11-21T08:03:13.019Z,8.57
2022-11-21T08:05:42.186Z,4.43
2022-11-21T08:08:11.040Z,5.30
2022-11-21T08:10:39.805Z,5.07
2022-11-21T08:13:07.961Z,4.80
2022-11-21T08:15:37.348Z,4.97
2022-11-21T08:18:09.403Z,3.70
2022-11-21T08:20:37.405Z,3.23
2022-11-21T08:23:06.241Z,5.00
2022-11-21T08:25:34.785Z,4.00
2022-11-21T08:28:03.740Z,5.27
2022-11-21T08:30:32.071Z,4.83
2022-11-21T08:33:02.014Z,4.30
2022-11-21T08:35:30.352Z,6.33
2022-11-21T08:37:58.813Z,6.30
2022-11-21T08:40:27.755Z,4.80
2022-11-21T08:42:58.833Z,5.90
2022-11-21T08:45:27.112Z,3.77
2022-11-21T08:47:55.287Z,3.97
2022-11-21T08:50:25.139Z,3.67
2022-11-21T08:52:53.368Z,4.13
2022-11-21T08:55:23.085Z,4.80
2022-11-21T08:57:51.161Z,5.40
2022-11-21T09:00:19.347Z,3.73
2022-11-21T09:02:47.141Z,4.57
2022-11-21T09:05:15.132Z,3.93
2022-11-21T09:07:44.592Z,4.50
2022-11-21T09:10:12.807Z,6.93
2022-11-21T09:12:40.790Z,5.57
2022-11-21T09:15:28.344Z,6.00
2022-11-21T09:18:07.247Z,6.00
2022-11-21T09:20:40.547Z,11.70
2022-11-21T09:23:11.675Z,7.60
2022-11-21T09:25:40.153Z,9.67
2022-11-21T09:28:09.386Z,11.20
2022-11-21T09:30:38.030Z,8.40
2022-11-21T09:33:08.013Z,9.47
2022-11-21T09:35:35.834Z,10.23
2022-11-21T09:38:03.664Z,8.90
2022-11-21T09:40:35.866Z,7.90
2022-11-21T09:43:27.469Z,7.00
2022-11-21T09:46:02.737Z,6.93
2022-11-21T09:48:36.538Z,7.50
2022-11-21T09:51:08.708Z,6.87
2022-11-21T09:53:39.242Z,7.47
2022-11-21T09:56:14.101Z,6.20
2022-11-21T09:58:45.530Z,11.53
2022-11-21T10:01:14.344Z,7.83
2022-11-21T10:03:44.533Z,8.73
2022-11-21T10:06:20.621Z,6.33
2022-11-21T10:08:57.015Z,5.33
2022-11-21T10:12:01.777Z,4.50
2022-11-21T10:14:44.012Z,4.37
2022-11-21T10:17:23.978Z,5.50
2022-11-21T10:20:10.536Z,6.13
2022-11-21T10:22:51.553Z,6.80
2022-11-21T10:25:27.275Z,4.50
2022-11-21T10:28:03.185Z,7.97
2022-11-21T10:30:30.996Z,6.53
2022-11-21T10:33:04.669Z,4.90
2022-11-21T10:35:40.842Z,5.13
2022-11-21T10:38:20.921Z,6.53
2022-11-21T10:40:52.551Z,5.83
2022-11-21T10:43:50.354Z,5.87
2022-11-21T10:46:18.425Z,7.23
2022-11-21T10:48:54.402Z,5.93
2022-11-21T10:51:36.772Z,7.67
2022-11-21T10:54:24.296Z,6.17
2022-11-21T10:56:54.173Z,6.03
2022-11-21T10:59:30.974Z,8.63
2022-11-21T11:02:01.303Z,8.53
2022-11-21T11:04:37.632Z,8.07
2022-11-21T11:07:24.085Z,9.73
2022-11-21T11:09:53.693Z,7.67
2022-11-21T11:12:47.082Z,6.70
2022-11-21T11:15:22.426Z,8.50
2022-11-21T11:17:56.321Z,8.37
2022-11-21T11:20:34.199Z,4.80
2022-11-21T11:23:02.154Z,6.10
2022-11-21T11:25:36.964Z,6.73
2022-11-21T11:28:09.191Z,6.17
2022-11-21T11:30:39.477Z,7.57
2022-11-21T11:33:29.972Z,7.93
2022-11-21T11:36:07.176Z,4.13
2022-11-21T11:38:35.492Z,4.47
2022-11-21T11:41:14.372Z,4.73
2022-11-21T11:44:10.712Z,5.87
2022-11-21T11:47:07.533Z,4.40
2022-11-21T11:49:55.840Z,4.73
2022-11-21T11:52:28.048Z,3.73
2022-11-21T11:55:01.737Z,6.03
2022-11-21T11:57:32.878Z,4.87
2022-11-21T12:00:10.162Z,5.57
2022-11-21T12:02:48.636Z,6.13
2022-11-21T12:05:21.216Z,7.07
2022-11-21T12:11:08.064Z,5.73
2022-11-21T12:13:38.399Z,6.37
2022-11-21T12:16:13.689Z,4.70
2022-11-21T12:18:52.680Z,4.23
2022-11-21T12:21:21.098Z,4.03
2022-11-21T12:23:51.345Z,4.00
2022-11-21T12:26:32.388Z,4.60
2022-11-21T12:29:13.691Z,4.00
2022-11-21T12:31:55.773Z,4.47
2022-11-21T12:34:38.772Z,3.50
2022-11-21T12:37:19.328Z,4.67
2022-11-21T12:40:05.416Z,3.00
2022-11-21T12:42:52.118Z,4.90
2022-11-21T12:45:28.964Z,5.37
2022-11-21T12:48:30.623Z,4.93
2022-11-21T12:51:33.209Z,4.63
2022-11-21T12:54:29.516Z,3.23
2022-11-21T12:57:04.420Z,2.63
2022-11-21T12:59:37.064Z,6.40
2022-11-21T13:02:20.119Z,3.53
2022-11-21T13:04:51.062Z,2.73
2022-11-21T13:07:22.736Z,4.03
2022-11-21T13:09:54.959Z,2.40
2022-11-21T13:12:32.151Z,2.37
2022-11-21T13:15:07.359Z,3.50
2022-11-21T13:17:44.083Z,4.13
2022-11-21T13:20:22.932Z,4.30
2022-11-21T13:22:57.081Z,5.50
2022-11-21T13:25:41.063Z,3.27
2022-11-21T13:28:34.624Z,5.67
2022-11-21T13:31:04.236Z,4.73
2022-11-21T13:33:53.473Z,4.07
2022-11-21T13:36:44.207Z,2.87
2022-11-21T13:39:37.842Z,4.00
2022-11-21T13:42:33.520Z,3.70
2022-11-21T13:45:43.579Z,4.77
2022-11-21T13:48:24.312Z,2.73
2022-11-21T13:51:30.693Z,6.33
2022-11-21T13:54:33.066Z,2.50
2022-11-21T13:57:15.993Z,2.60
2022-11-21T14:00:04.506Z,3.27
2022-11-21T14:03:02.672Z,2.63
2022-11-21T14:05:54.772Z,3.30
2022-11-21T14:08:25.429Z,3.30
2022-11-21T14:10:55.313Z,3.33
2022-11-21T14:13:29.738Z,3.67
2022-11-21T14:16:21.852Z,3.10
2022-11-21T14:18:49.871Z,2.53
2022-11-21T14:21:21.966Z,5.07
2022-11-21T14:23:50.237Z,4.87
2022-11-21T14:26:21.588Z,4.17
2022-11-21T14:28:52.093Z,3.73
2022-11-21T14:31:20.259Z,6.60
2022-11-21T14:33:48.740Z,4.10
2022-11-21T14:36:19.412Z,4.23
2022-11-21T14:38:57.784Z,3.47
2022-11-21T14:41:32.738Z,4.90
2022-11-21T14:44:20.601Z,4.73
2022-11-21T14:46:49.321Z,9.40
2022-11-21T14:49:29.481Z,7.00
2022-11-21T14:52:19.502Z,9.77
2022-11-21T14:55:22.225Z,7.90
2022-11-21T14:57:43.002Z,7.07
2022-11-21T15:00:43.360Z,8.70
2022-11-21T15:03:05.894Z,6.27
2022-11-21T15:08:59.405Z,7.87
2022-11-21T15:11:13.162Z,7.53
2022-11-21T15:16:32.027Z,8.97
2022-11-21T15:19:00.203Z,7.87
2022-11-21T15:21:28.027Z,19.80
2022-11-21T15:23:56.908Z,11.00
2022-11-21T15:26:31.628Z,8.27
2022-11-21T15:29:01.608Z,10.33
2022-11-21T15:31:30.969Z,7.80
2022-11-21T15:37:04.657Z,6.63
2022-11-21T15:39:33.890Z,8.23
2022-11-21T15:42:37.128Z,8.53
2022-11-21T15:45:23.926Z,14.23
2022-11-21T15:47:53.534Z,10.60
2022-11-21T15:50:24.337Z,10.57
2022-11-21T15:52:53.574Z,9.23
2022-11-21T15:55:23.660Z,9.23
2022-11-21T15:57:51.493Z,9.47
2022-11-21T16:00:19.620Z,10.93
2022-11-21T16:02:47.711Z,11.70
2022-11-21T16:05:17.465Z,10.20
2022-11-21T16:07:45.477Z,11.03
2022-11-21T16:10:19.949Z,15.67
2022-11-21T16:12:50.733Z,12.97
2022-11-21T16:15:18.635Z,13.77
2022-11-21T16:17:47.834Z,11.90
2022-11-21T16:20:17.703Z,11.67
2022-11-21T16:22:47.699Z,13.77
2022-11-21T16:25:15.997Z,12.83
2022-11-21T16:27:43.971Z,13.43
2022-11-21T16:30:12.389Z,14.63
2022-11-21T16:32:40.447Z,16.63
2022-11-21T16:35:08.933Z,18.17
2022-11-21T16:37:38.175Z,19.33
2022-11-21T16:40:07.194Z,18.03
2022-11-21T16:42:35.150Z,16.33
2022-11-21T16:45:03.019Z,17.73
2022-11-21T16:47:30.804Z,19.13
2022-11-21T16:49:58.690Z,15.17
2022-11-21T16:52:26.677Z,13.37
2022-11-21T16:54:55.841Z,14.93
2022-11-21T16:57:23.718Z,14.10
2022-11-21T16:59:51.581Z,12.63
2022-11-21T17:02:19.376Z,13.73
2022-11-21T17:04:47.199Z,14.73
2022-11-21T17:07:15.119Z,13.23
2022-11-21T17:09:42.963Z,14.33
2022-11-21T17:12:12.244Z,14.07
2022-11-21T17:14:40.201Z,11.87
2022-11-21T17:17:08.004Z,11.20
2022-11-21T17:19:35.980Z,10.77
2022-11-21T17:22:03.966Z,16.90
2022-11-21T17:24:31.984Z,16.27
2022-11-21T17:27:02.561Z,11.77
2022-11-21T17:29:31.915Z,11.80
2022-11-21T17:31:59.750Z,14.37
2022-11-21T17:34:32.817Z,14.83
2022-11-21T17:37:02.555Z,13.33
2022-11-21T17:39:30.677Z,15.63
2022-11-21T17:41:59.995Z,18.63
2022-11-21T17:44:28.420Z,18.40
2022-11-21T17:46:59.337Z,21.27
2022-11-21T17:49:30.119Z,14.40
2022-11-21T17:51:58.366Z,19.40
2022-11-21T17:54:26.692Z,13.03
2022-11-21T17:56:56.927Z,16.63
2022-11-21T17:59:25.107Z,18.93
2022-11-21T18:01:53.158Z,17.20
2022-11-21T18:04:22.587Z,19.40
2022-11-21T18:06:50.448Z,18.13
2022-11-21T18:09:18.579Z,16.40
2022-11-21T18:11:46.536Z,18.13
2022-11-21T18:14:14.573Z,15.90
2022-11-21T18:16:47.569Z,15.07
2022-11-21T18:19:17.516Z,17.37
2022-11-21T18:21:46.895Z,13.93
2022-11-21T18:24:17.298Z,14.07
2022-11-21T18:26:45.151Z,14.63
2022-11-21T18:29:35.281Z,9.20
2022-11-21T18:32:01.448Z,7.83
2022-11-21T18:34:29.551Z,10.00
2022-11-21T18:36:58.801Z,9.70
2022-11-21T18:39:27.107Z,6.80
2022-11-21T18:41:55.161Z,10.63
2022-11-21T18:44:23.018Z,10.60
2022-11-21T18:46:51.067Z,11.10
2022-11-21T18:49:19.098Z,10.53
2022-11-21T18:51:48.313Z,11.80
2022-11-21T18:54:18.063Z,12.70
2022-11-21T18:56:47.326Z,13.83
2022-11-21T18:59:15.619Z,13.30
2022-11-21T19:01:43.617Z,15.37
2022-11-21T19:04:12.924Z,13.63
2022-11-21T19:06:40.751Z,14.10
2022-11-21T19:09:08.648Z,14.77
2022-11-21T19:11:38.095Z,12.47
2022-11-21T19:14:05.879Z,16.63
2022-11-21T19:16:35.115Z,17.67
2022-11-21T19:21:54.867Z,17.07
2022-11-21T19:24:22.922Z,18.50
2022-11-21T19:26:53.286Z,20.37
2022-11-21T19:29:21.371Z,23.67
2022-11-21T19:31:49.343Z,22.90
2022-11-21T19:34:17.888Z,26.10
2022-11-21T19:36:46.987Z,23.60
2022-11-21T19:39:17.197Z,23.20
2022-11-21T19:41:45.012Z,25.07
2022-11-21T19:44:14.354Z,22.33
2022-11-21T19:46:42.372Z,20.30
2022-11-21T19:49:12.751Z,24.37
2022-11-21T19:51:42.548Z,21.03
2022-11-21T19:54:13.067Z,20.70
2022-11-21T19:56:41.133Z,19.27
2022-11-21T19:59:12.199Z,20.07
2022-11-21T20:01:41.747Z,21.40
2022-11-21T20:04:10.083Z,17.77
2022-11-21T20:06:41.179Z,19.73
2022-11-21T20:09:11.008Z,17.47
2022-11-21T20:11:40.704Z,17.30
2022-11-21T20:14:09.141Z,16.30
2022-11-21T20:16:38.592Z,17.33
2022-11-21T20:19:11.049Z,17.10
2022-11-21T20:21:39.829Z,16.20
2022-11-21T20:24:08.600Z,14.00
2022-11-21T20:26:37.495Z,17.43
2022-11-21T20:29:06.903Z,17.17
2022-11-21T20:31:37.059Z,14.83
2022-11-21T20:34:08.761Z,17.23
2022-11-21T20:36:37.764Z,13.00
2022-11-21T20:39:07.948Z,13.17
2022-11-21T20:41:37.573Z,13.83
2022-11-21T20:46:55.431Z,12.90
2022-11-21T20:49:24.677Z,11.83
2022-11-21T20:54:40.614Z,13.50
2022-11-21T20:57:14.464Z,15.87
2022-11-21T20:59:43.453Z,13.30
2022-11-21T21:02:14.054Z,12.43
2022-11-21T21:04:43.767Z,13.17
2022-11-21T21:07:11.871Z,11.47
2022-11-21T21:09:39.999Z,9.80
2022-11-21T21:12:08.304Z,11.37
2022-11-21T21:14:36.456Z,11.87
2022-11-21T21:17:04.286Z,12.37
2022-11-21T21:19:32.601Z,9.43
2022-11-21T21:22:02.094Z,10.57
2022-11-21T21:24:29.893Z,10.77
2022-11-21T21:26:57.826Z,11.50
2022-11-21T21:29:25.747Z,11.43
2022-11-21T21:31:53.537Z,11.80
2022-11-21T21:34:22.841Z,10.10
2022-11-21T21:36:51.364Z,11.90
2022-11-21T21:39:20.655Z,12.27
2022-11-21T21:41:48.539Z,8.53
2022-11-21T21:44:17.021Z,11.30
2022-11-21T21:46:45.259Z,10.50
2022-11-21T21:49:13.815Z,11.43
2022-11-21T21:51:41.773Z,11.93
2022-11-21T21:54:17.808Z,9.80
2022-11-21T21:56:47.687Z,10.97
2022-11-21T21:59:18.013Z,11.70
2022-11-21T22:01:46.181Z,13.27
2022-11-21T22:04:14.511Z,12.80
2022-11-21T22:06:42.383Z,11.37
2022-11-21T22:09:10.435Z,13.40
2022-11-21T22:11:40.241Z,13.03
2022-11-21T22:14:13.370Z,14.40
2022-11-21T22:16:42.117Z,14.70
2022-11-21T22:19:10.475Z,12.87
2022-11-21T22:21:39.173Z,12.20
2022-11-21T22:24:28.717Z,9.73
2022-11-21T22:26:56.787Z,11.37
2022-11-21T22:29:26.169Z,15.77
2022-11-21T22:31:53.998Z,13.90
2022-11-21T22:34:22.132Z,17.93
2022-11-21T22:36:50.095Z,12.17
2022-11-21T22:39:18.105Z,12.80
2022-11-21T22:41:46.146Z,13.73
2022-11-21T22:44:14.322Z,10.87
2022-11-21T22:46:43.497Z,12.07
2022-11-21T22:49:11.411Z,11.80
2022-11-21T22:51:39.408Z,11.73
2022-11-21T22:54:07.324Z,10.93
2022-11-21T22:56:35.241Z,11.20
2022-11-21T22:59:03.130Z,13.57
2022-11-21T23:01:31.005Z,10.43
2022-11-21T23:04:00.415Z,12.13
2022-11-21T23:06:28.773Z,10.07
2022-11-21T23:08:57.994Z,12.17
2022-11-21T23:11:28.251Z,14.47
2022-11-21T23:13:57.058Z,11.63
2022-11-21T23:16:25.312Z,12.73
2022-11-21T23:18:54.007Z,11.90
2022-11-21T23:21:23.853Z,11.07
2022-11-21T23:23:51.662Z,10.60
2022-11-21T23:26:20.337Z,12.80
2022-11-21T23:28:48.491Z,13.53
2022-11-21T23:31:16.380Z,10.40
2022-11-21T23:33:44.404Z,10.10
2022-11-21T23:36:12.296Z,10.87
2022-11-21T23:38:41.606Z,10.97
2022-11-21T23:41:09.516Z,11.03
2022-11-21T23:43:37.697Z,12.20
2022-11-21T23:46:05.546Z,10.70
2022-11-21T23:48:33.611Z,12.20
2022-11-21T23:51:01.546Z,8.37
2022-11-21T23:53:29.415Z,9.57
2022-11-21T23:55:58.850Z,10.20
2022-11-21T23:58:26.743Z,11.87
